sensor_id;sensor_type;location;lat;lon;timestamp;P1;durP1;ratioP1;P2;durP2;ratioP2
23222;SDS011;11780;13.904;100.620;2023-06-22T00:01:56;14.77;;;9.43;;
23222;SDS011;11780;13.904;100.620;2023-06-22T00:04:26;13.38;;;10.13;;
23222;SDS011;11780;13.904;100.620;2023-06-22T00:06:57;18.90;;;12.07;;
23222;SDS011;11780;13.904;100.620;2023-06-22T00:09:27;10.98;;;9.27;;
23222;SDS011;11780;13.904;100.620;2023-06-22T00:11:57;12.48;;;9.68;;
23222;SDS011;11780;13.904;100.620;2023-06-22T00:14:28;12.93;;;9.20;;
23222;SDS011;11780;13.904;100.620;2023-06-22T00:16:58;11.93;;;9.23;;
23222;SDS011;11780;13.904;100.620;2023-06-22T00:19:29;14.53;;;8.93;;
23222;SDS011;11780;13.904;100.620;2023-06-22T00:21:59;13.43;;;9.02;;
23222;SDS011;11780;13.904;100.620;2023-06-22T00:24:29;13.07;;;7.47;;
23222;SDS011;11780;13.904;100.620;2023-06-22T00:27:00;12.13;;;8.37;;
23222;SDS011;11780;13.904;100.620;2023-06-22T00:29:30;9.17;;;7.43;;
23222;SDS011;11780;13.904;100.620;2023-06-22T00:32:01;15.95;;;7.60;;
23222;SDS011;11780;13.904;100.620;2023-06-22T00:34:31;9.52;;;6.70;;
23222;SDS011;11780;13.904;100.620;2023-06-22T00:37:02;8.52;;;6.40;;
23222;SDS011;11780;13.904;100.620;2023-06-22T00:39:33;14.40;;;6.78;;
23222;SDS011;11780;13.904;100.620;2023-06-22T00:42:04;11.20;;;7.17;;
23222;SDS011;11780;13.904;100.620;2023-06-22T00:44:35;9.70;;;6.10;;
23222;SDS011;11780;13.904;100.620;2023-06-22T00:49:36;10.73;;;6.43;;
23222;SDS011;11780;13.904;100.620;2023-06-22T00:52:08;12.68;;;7.65;;
23222;SDS011;11780;13.904;100.620;2023-06-22T00:54:43;12.93;;;7.70;;
23222;SDS011;11780;13.904;100.620;2023-06-22T00:57:14;13.13;;;8.10;;
23222;SDS011;11780;13.904;100.620;2023-06-22T00:59:47;15.48;;;7.75;;
23222;SDS011;11780;13.904;100.620;2023-06-22T01:02:19;14.02;;;7.55;;
23222;SDS011;11780;13.904;100.620;2023-06-22T01:04:51;13.10;;;8.63;;
23222;SDS011;11780;13.904;100.620;2023-06-22T01:10:08;11.88;;;8.85;;
23222;SDS011;11780;13.904;100.620;2023-06-22T01:12:52;15.07;;;8.57;;
23222;SDS011;11780;13.904;100.620;2023-06-22T01:15:33;16.13;;;8.65;;
23222;SDS011;11780;13.904;100.620;2023-06-22T01:18:15;17.95;;;9.00;;
23222;SDS011;11780;13.904;100.620;2023-06-22T01:20:49;11.77;;;7.38;;
23222;SDS011;11780;13.904;100.620;2023-06-22T01:29:19;15.05;;;7.93;;
23222;SDS011;11780;13.904;100.620;2023-06-22T01:31:54;16.40;;;9.98;;
23222;SDS011;11780;13.904;100.620;2023-06-22T01:34:28;13.25;;;9.25;;
23222;SDS011;11780;13.904;100.620;2023-06-22T01:37:02;12.40;;;9.05;;
23222;SDS011;11780;13.904;100.620;2023-06-22T01:39:33;15.93;;;8.70;;
23222;SDS011;11780;13.904;100.620;2023-06-22T01:44:35;13.98;;;8.05;;
23222;SDS011;11780;13.904;100.620;2023-06-22T01:47:08;13.95;;;8.60;;
23222;SDS011;11780;13.904;100.620;2023-06-22T01:49:40;13.82;;;8.32;;
23222;SDS011;11780;13.904;100.620;2023-06-22T01:52:10;14.25;;;8.75;;
23222;SDS011;11780;13.904;100.620;2023-06-22T01:54:41;11.23;;;7.70;;
23222;SDS011;11780;13.904;100.620;2023-06-22T01:57:11;18.45;;;9.27;;
23222;SDS011;11780;13.904;100.620;2023-06-22T01:59:48;11.75;;;7.55;;
23222;SDS011;11780;13.904;100.620;2023-06-22T02:02:43;14.75;;;7.93;;
23222;SDS011;11780;13.904;100.620;2023-06-22T02:05:17;16.33;;;7.63;;
23222;SDS011;11780;13.904;100.620;2023-06-22T02:07:51;15.85;;;7.53;;
23222;SDS011;11780;13.904;100.620;2023-06-22T02:10:30;14.48;;;8.07;;
23222;SDS011;11780;13.904;100.620;2023-06-22T02:13:03;11.95;;;7.55;;
23222;SDS011;11780;13.904;100.620;2023-06-22T02:15:37;13.65;;;7.88;;
23222;SDS011;11780;13.904;100.620;2023-06-22T02:18:07;12.65;;;8.38;;
23222;SDS011;11780;13.904;100.620;2023-06-22T02:20:38;13.48;;;7.53;;
23222;SDS011;11780;13.904;100.620;2023-06-22T02:23:09;11.57;;;7.60;;
23222;SDS011;11780;13.904;100.620;2023-06-22T02:25:39;13.50;;;7.72;;
23222;SDS011;11780;13.904;100.620;2023-06-22T02:28:13;13.65;;;8.10;;
23222;SDS011;11780;13.904;100.620;2023-06-22T02:30:44;14.43;;;8.02;;
23222;SDS011;11780;13.904;100.620;2023-06-22T02:33:14;16.65;;;7.38;;
23222;SDS011;11780;13.904;100.620;2023-06-22T02:38:21;17.17;;;9.63;;
23222;SDS011;11780;13.904;100.620;2023-06-22T02:40:53;18.65;;;8.40;;
23222;SDS011;11780;13.904;100.620;2023-06-22T02:43:24;11.18;;;6.78;;
23222;SDS011;11780;13.904;100.620;2023-06-22T02:45:55;16.20;;;7.03;;
23222;SDS011;11780;13.904;100.620;2023-06-22T02:48:25;14.30;;;7.30;;
23222;SDS011;11780;13.904;100.620;2023-06-22T02:50:56;11.25;;;6.85;;
23222;SDS011;11780;13.904;100.620;2023-06-22T02:53:27;13.53;;;6.73;;
23222;SDS011;11780;13.904;100.620;2023-06-22T02:55:57;11.73;;;6.63;;
23222;SDS011;11780;13.904;100.620;2023-06-22T02:58:29;8.43;;;6.70;;
23222;SDS011;11780;13.904;100.620;2023-06-22T03:01:00;12.23;;;6.67;;
23222;SDS011;11780;13.904;100.620;2023-06-22T03:03:36;14.07;;;6.38;;
23222;SDS011;11780;13.904;100.620;2023-06-22T03:06:07;13.73;;;6.80;;
23222;SDS011;11780;13.904;100.620;2023-06-22T03:08:43;15.65;;;6.97;;
23222;SDS011;11780;13.904;100.620;2023-06-22T03:11:14;10.27;;;6.65;;
23222;SDS011;11780;13.904;100.620;2023-06-22T03:13:45;14.05;;;6.30;;
23222;SDS011;11780;13.904;100.620;2023-06-22T03:16:16;10.13;;;6.40;;
23222;SDS011;11780;13.904;100.620;2023-06-22T03:21:17;9.57;;;5.97;;
23222;SDS011;11780;13.904;100.620;2023-06-22T03:23:48;10.13;;;6.37;;
23222;SDS011;11780;13.904;100.620;2023-06-22T03:26:18;12.87;;;6.43;;
23222;SDS011;11780;13.904;100.620;2023-06-22T03:28:50;12.95;;;6.15;;
23222;SDS011;11780;13.904;100.620;2023-06-22T03:31:21;8.83;;;5.80;;
23222;SDS011;11780;13.904;100.620;2023-06-22T03:33:53;11.75;;;6.30;;
23222;SDS011;11780;13.904;100.620;2023-06-22T03:36:24;12.38;;;5.60;;
23222;SDS011;11780;13.904;100.620;2023-06-22T03:38:55;11.93;;;6.40;;
23222;SDS011;11780;13.904;100.620;2023-06-22T03:41:25;12.25;;;6.03;;
23222;SDS011;11780;13.904;100.620;2023-06-22T03:43:56;14.65;;;6.47;;
23222;SDS011;11780;13.904;100.620;2023-06-22T03:46:26;12.40;;;5.65;;
23222;SDS011;11780;13.904;100.620;2023-06-22T03:48:58;11.40;;;6.03;;
23222;SDS011;11780;13.904;100.620;2023-06-22T03:51:32;10.93;;;5.88;;
23222;SDS011;11780;13.904;100.620;2023-06-22T03:54:03;13.23;;;5.93;;
23222;SDS011;11780;13.904;100.620;2023-06-22T03:56:33;12.00;;;5.73;;
23222;SDS011;11780;13.904;100.620;2023-06-22T03:59:04;12.70;;;6.60;;
23222;SDS011;11780;13.904;100.620;2023-06-22T04:01:34;13.68;;;5.80;;
23222;SDS011;11780;13.904;100.620;2023-06-22T04:04:06;10.70;;;6.13;;
23222;SDS011;11780;13.904;100.620;2023-06-22T04:06:36;9.68;;;5.82;;
23222;SDS011;11780;13.904;100.620;2023-06-22T04:09:07;14.70;;;6.88;;
23222;SDS011;11780;13.904;100.620;2023-06-22T04:11:37;9.23;;;6.55;;
23222;SDS011;11780;13.904;100.620;2023-06-22T04:14:08;13.88;;;6.55;;
23222;SDS011;11780;13.904;100.620;2023-06-22T04:16:38;14.00;;;6.95;;
23222;SDS011;11780;13.904;100.620;2023-06-22T04:19:08;10.07;;;6.18;;
23222;SDS011;11780;13.904;100.620;2023-06-22T04:21:45;13.00;;;6.40;;
23222;SDS011;11780;13.904;100.620;2023-06-22T04:24:17;11.30;;;6.45;;
23222;SDS011;11780;13.904;100.620;2023-06-22T04:26:48;15.03;;;6.30;;
23222;SDS011;11780;13.904;100.620;2023-06-22T04:29:23;11.63;;;5.55;;
23222;SDS011;11780;13.904;100.620;2023-06-22T04:31:58;12.68;;;6.88;;
23222;SDS011;11780;13.904;100.620;2023-06-22T04:34:32;9.40;;;5.90;;
23222;SDS011;11780;13.904;100.620;2023-06-22T04:37:02;11.35;;;5.47;;
23222;SDS011;11780;13.904;100.620;2023-06-22T04:39:33;14.45;;;6.28;;
23222;SDS011;11780;13.904;100.620;2023-06-22T04:42:04;12.50;;;6.03;;
23222;SDS011;11780;13.904;100.620;2023-06-22T04:44:34;7.13;;;5.00;;
23222;SDS011;11780;13.904;100.620;2023-06-22T04:47:05;10.82;;;5.80;;
23222;SDS011;11780;13.904;100.620;2023-06-22T04:49:38;8.48;;;5.32;;
23222;SDS011;11780;13.904;100.620;2023-06-22T04:52:10;9.45;;;5.60;;
23222;SDS011;11780;13.904;100.620;2023-06-22T04:54:42;11.70;;;6.30;;
23222;SDS011;11780;13.904;100.620;2023-06-22T04:57:17;9.82;;;5.55;;
23222;SDS011;11780;13.904;100.620;2023-06-22T04:59:47;8.38;;;5.90;;
23222;SDS011;11780;13.904;100.620;2023-06-22T05:02:18;10.20;;;6.20;;
23222;SDS011;11780;13.904;100.620;2023-06-22T05:04:48;12.17;;;5.87;;
23222;SDS011;11780;13.904;100.620;2023-06-22T05:07:21;11.18;;;6.15;;
23222;SDS011;11780;13.904;100.620;2023-06-22T05:09:54;8.50;;;6.05;;
23222;SDS011;11780;13.904;100.620;2023-06-22T05:12:25;7.17;;;6.03;;
23222;SDS011;11780;13.904;100.620;2023-06-22T05:14:57;9.45;;;5.93;;
23222;SDS011;11780;13.904;100.620;2023-06-22T05:17:27;11.23;;;6.63;;
23222;SDS011;11780;13.904;100.620;2023-06-22T05:19:58;11.50;;;6.47;;
23222;SDS011;11780;13.904;100.620;2023-06-22T05:22:28;8.10;;;6.33;;
23222;SDS011;11780;13.904;100.620;2023-06-22T05:24:58;14.43;;;5.88;;
23222;SDS011;11780;13.904;100.620;2023-06-22T05:27:29;12.27;;;6.57;;
23222;SDS011;11780;13.904;100.620;2023-06-22T05:29:59;9.25;;;6.15;;
23222;SDS011;11780;13.904;100.620;2023-06-22T05:32:30;11.40;;;6.00;;
23222;SDS011;11780;13.904;100.620;2023-06-22T05:35:00;9.10;;;6.03;;
23222;SDS011;11780;13.904;100.620;2023-06-22T05:37:31;11.75;;;6.38;;
23222;SDS011;11780;13.904;100.620;2023-06-22T05:40:03;13.00;;;6.50;;
23222;SDS011;11780;13.904;100.620;2023-06-22T05:42:34;12.70;;;6.50;;
23222;SDS011;11780;13.904;100.620;2023-06-22T05:45:05;11.23;;;6.70;;
23222;SDS011;11780;13.904;100.620;2023-06-22T05:47:36;12.77;;;7.20;;
23222;SDS011;11780;13.904;100.620;2023-06-22T05:50:06;12.07;;;6.72;;
23222;SDS011;11780;13.904;100.620;2023-06-22T05:52:39;12.48;;;6.63;;
23222;SDS011;11780;13.904;100.620;2023-06-22T05:55:10;9.77;;;6.30;;
23222;SDS011;11780;13.904;100.620;2023-06-22T05:57:40;14.73;;;7.78;;
23222;SDS011;11780;13.904;100.620;2023-06-22T06:00:10;17.97;;;7.40;;
23222;SDS011;11780;13.904;100.620;2023-06-22T06:02:42;14.73;;;7.38;;
23222;SDS011;11780;13.904;100.620;2023-06-22T06:05:13;12.52;;;7.72;;
23222;SDS011;11780;13.904;100.620;2023-06-22T06:07:44;14.65;;;7.10;;
23222;SDS011;11780;13.904;100.620;2023-06-22T06:10:15;13.18;;;6.90;;
23222;SDS011;11780;13.904;100.620;2023-06-22T06:12:45;14.63;;;7.38;;
23222;SDS011;11780;13.904;100.620;2023-06-22T06:15:16;13.35;;;6.65;;
23222;SDS011;11780;13.904;100.620;2023-06-22T06:17:47;10.35;;;6.03;;
23222;SDS011;11780;13.904;100.620;2023-06-22T06:20:19;11.05;;;6.38;;
23222;SDS011;11780;13.904;100.620;2023-06-22T06:22:51;11.25;;;6.18;;
23222;SDS011;11780;13.904;100.620;2023-06-22T06:25:21;9.97;;;6.57;;
23222;SDS011;11780;13.904;100.620;2023-06-22T06:27:52;11.00;;;5.97;;
23222;SDS011;11780;13.904;100.620;2023-06-22T06:30:24;11.32;;;5.90;;
23222;SDS011;11780;13.904;100.620;2023-06-22T06:32:55;12.82;;;6.47;;
23222;SDS011;11780;13.904;100.620;2023-06-22T06:35:25;11.40;;;6.37;;
23222;SDS011;11780;13.904;100.620;2023-06-22T06:37:56;9.68;;;5.47;;
23222;SDS011;11780;13.904;100.620;2023-06-22T06:40:26;9.18;;;5.45;;
23222;SDS011;11780;13.904;100.620;2023-06-22T06:45:27;7.30;;;5.47;;
23222;SDS011;11780;13.904;100.620;2023-06-22T06:48:00;10.43;;;5.10;;
23222;SDS011;11780;13.904;100.620;2023-06-22T06:50:31;7.63;;;5.40;;
23222;SDS011;11780;13.904;100.620;2023-06-22T06:53:01;9.07;;;5.30;;
23222;SDS011;11780;13.904;100.620;2023-06-22T06:55:32;10.03;;;5.83;;
23222;SDS011;11780;13.904;100.620;2023-06-22T06:58:02;10.20;;;5.20;;
23222;SDS011;11780;13.904;100.620;2023-06-22T07:00:37;8.05;;;5.13;;
23222;SDS011;11780;13.904;100.620;2023-06-22T07:03:08;10.10;;;5.65;;
23222;SDS011;11780;13.904;100.620;2023-06-22T07:05:38;7.18;;;5.70;;
23222;SDS011;11780;13.904;100.620;2023-06-22T07:08:08;8.93;;;5.55;;
23222;SDS011;11780;13.904;100.620;2023-06-22T07:10:39;10.45;;;5.75;;
23222;SDS011;11780;13.904;100.620;2023-06-22T07:13:10;9.02;;;5.82;;
23222;SDS011;11780;13.904;100.620;2023-06-22T07:15:40;7.72;;;5.68;;
23222;SDS011;11780;13.904;100.620;2023-06-22T07:18:11;7.43;;;5.40;;
23222;SDS011;11780;13.904;100.620;2023-06-22T07:20:42;10.47;;;6.40;;
23222;SDS011;11780;13.904;100.620;2023-06-22T07:23:12;10.05;;;5.45;;
23222;SDS011;11780;13.904;100.620;2023-06-22T07:25:43;9.18;;;5.28;;
23222;SDS011;11780;13.904;100.620;2023-06-22T07:28:13;6.80;;;5.33;;
23222;SDS011;11780;13.904;100.620;2023-06-22T07:30:43;8.65;;;5.45;;
23222;SDS011;11780;13.904;100.620;2023-06-22T07:33:14;9.27;;;5.37;;
23222;SDS011;11780;13.904;100.620;2023-06-22T07:35:45;7.27;;;5.70;;
23222;SDS011;11780;13.904;100.620;2023-06-22T07:38:20;10.30;;;5.32;;
23222;SDS011;11780;13.904;100.620;2023-06-22T07:40:50;10.75;;;5.40;;
23222;SDS011;11780;13.904;100.620;2023-06-22T07:43:22;11.90;;;5.60;;
23222;SDS011;11780;13.904;100.620;2023-06-22T07:45:53;8.88;;;5.50;;
23222;SDS011;11780;13.904;100.620;2023-06-22T07:48:23;9.67;;;5.53;;
23222;SDS011;11780;13.904;100.620;2023-06-22T07:50:54;7.53;;;5.25;;
23222;SDS011;11780;13.904;100.620;2023-06-22T07:53:24;6.47;;;5.57;;
23222;SDS011;11780;13.904;100.620;2023-06-22T07:55:55;8.27;;;5.30;;
23222;SDS011;11780;13.904;100.620;2023-06-22T07:58:25;9.33;;;5.37;;
23222;SDS011;11780;13.904;100.620;2023-06-22T08:00:56;9.17;;;5.10;;
23222;SDS011;11780;13.904;100.620;2023-06-22T08:03:26;7.93;;;4.75;;
23222;SDS011;11780;13.904;100.620;2023-06-22T08:05:57;9.23;;;4.57;;
23222;SDS011;11780;13.904;100.620;2023-06-22T08:08:28;10.10;;;5.17;;
23222;SDS011;11780;13.904;100.620;2023-06-22T08:10:59;9.20;;;5.10;;
23222;SDS011;11780;13.904;100.620;2023-06-22T08:13:29;11.45;;;5.53;;
23222;SDS011;11780;13.904;100.620;2023-06-22T08:16:00;10.90;;;5.33;;
23222;SDS011;11780;13.904;100.620;2023-06-22T08:18:30;8.43;;;4.77;;
23222;SDS011;11780;13.904;100.620;2023-06-22T08:21:01;9.13;;;4.83;;
23222;SDS011;11780;13.904;100.620;2023-06-22T08:26:02;8.75;;;5.65;;
23222;SDS011;11780;13.904;100.620;2023-06-22T08:28:32;12.47;;;5.00;;
23222;SDS011;11780;13.904;100.620;2023-06-22T08:31:02;10.15;;;5.32;;
23222;SDS011;11780;13.904;100.620;2023-06-22T08:33:33;13.47;;;5.37;;
23222;SDS011;11780;13.904;100.620;2023-06-22T08:36:15;7.40;;;4.70;;
23222;SDS011;11780;13.904;100.620;2023-06-22T08:38:45;8.37;;;5.10;;
23222;SDS011;11780;13.904;100.620;2023-06-22T08:41:20;9.40;;;4.60;;
23222;SDS011;11780;13.904;100.620;2023-06-22T08:43:50;8.40;;;5.10;;
23222;SDS011;11780;13.904;100.620;2023-06-22T08:49:24;9.90;;;4.45;;
23222;SDS011;11780;13.904;100.620;2023-06-22T08:51:55;9.20;;;4.88;;
23222;SDS011;11780;13.904;100.620;2023-06-22T08:54:26;13.00;;;5.13;;
23222;SDS011;11780;13.904;100.620;2023-06-22T08:56:57;9.18;;;5.00;;
23222;SDS011;11780;13.904;100.620;2023-06-22T08:59:27;9.30;;;4.70;;
23222;SDS011;11780;13.904;100.620;2023-06-22T09:01:58;6.53;;;5.03;;
23222;SDS011;11780;13.904;100.620;2023-06-22T09:04:28;9.00;;;4.70;;
23222;SDS011;11780;13.904;100.620;2023-06-22T09:06:59;9.90;;;4.63;;
23222;SDS011;11780;13.904;100.620;2023-06-22T09:09:31;7.55;;;4.45;;
23222;SDS011;11780;13.904;100.620;2023-06-22T09:12:02;7.80;;;4.63;;
23222;SDS011;11780;13.904;100.620;2023-06-22T09:14:32;9.02;;;4.60;;
23222;SDS011;11780;13.904;100.620;2023-06-22T09:17:03;9.00;;;4.70;;
23222;SDS011;11780;13.904;100.620;2023-06-22T09:19:33;9.15;;;5.13;;
23222;SDS011;11780;13.904;100.620;2023-06-22T09:22:04;9.93;;;4.57;;
23222;SDS011;11780;13.904;100.620;2023-06-22T09:24:36;8.52;;;4.70;;
23222;SDS011;11780;13.904;100.620;2023-06-22T09:27:07;6.63;;;4.07;;
23222;SDS011;11780;13.904;100.620;2023-06-22T09:29:37;9.40;;;5.17;;
23222;SDS011;11780;13.904;100.620;2023-06-22T09:32:07;7.93;;;5.18;;
23222;SDS011;11780;13.904;100.620;2023-06-22T09:34:38;8.25;;;5.47;;
23222;SDS011;11780;13.904;100.620;2023-06-22T09:37:08;6.28;;;4.40;;
23222;SDS011;11780;13.904;100.620;2023-06-22T09:39:39;10.07;;;4.75;;
23222;SDS011;11780;13.904;100.620;2023-06-22T09:42:09;7.03;;;4.80;;
23222;SDS011;11780;13.904;100.620;2023-06-22T09:44:40;10.70;;;5.23;;
23222;SDS011;11780;13.904;100.620;2023-06-22T09:47:10;7.70;;;4.17;;
23222;SDS011;11780;13.904;100.620;2023-06-22T09:49:40;5.53;;;4.70;;
23222;SDS011;11780;13.904;100.620;2023-06-22T09:52:15;11.95;;;6.47;;
23222;SDS011;11780;13.904;100.620;2023-06-22T09:54:48;9.98;;;5.55;;
23222;SDS011;11780;13.904;100.620;2023-06-22T09:57:19;9.60;;;5.32;;
23222;SDS011;11780;13.904;100.620;2023-06-22T09:59:49;8.65;;;5.72;;
23222;SDS011;11780;13.904;100.620;2023-06-22T10:02:20;13.47;;;7.33;;
23222;SDS011;11780;13.904;100.620;2023-06-22T10:04:51;14.05;;;7.32;;
23222;SDS011;11780;13.904;100.620;2023-06-22T10:07:22;10.57;;;7.13;;
23222;SDS011;11780;13.904;100.620;2023-06-22T10:09:53;14.40;;;8.50;;
23222;SDS011;11780;13.904;100.620;2023-06-22T10:12:23;19.38;;;8.60;;
23222;SDS011;11780;13.904;100.620;2023-06-22T10:14:53;15.33;;;8.37;;
23222;SDS011;11780;13.904;100.620;2023-06-22T10:17:24;19.50;;;8.53;;
23222;SDS011;11780;13.904;100.620;2023-06-22T10:19:54;14.10;;;8.40;;
23222;SDS011;11780;13.904;100.620;2023-06-22T10:22:25;11.93;;;8.20;;
23222;SDS011;11780;13.904;100.620;2023-06-22T10:24:55;14.30;;;9.07;;
23222;SDS011;11780;13.904;100.620;2023-06-22T10:27:26;16.33;;;9.00;;
23222;SDS011;11780;13.904;100.620;2023-06-22T10:29:57;14.95;;;8.25;;
23222;SDS011;11780;13.904;100.620;2023-06-22T10:32:27;16.43;;;9.77;;
23222;SDS011;11780;13.904;100.620;2023-06-22T10:34:58;12.50;;;9.13;;
23222;SDS011;11780;13.904;100.620;2023-06-22T10:37:28;12.05;;;8.85;;
23222;SDS011;11780;13.904;100.620;2023-06-22T10:39:59;14.17;;;9.00;;
23222;SDS011;11780;13.904;100.620;2023-06-22T10:42:29;12.63;;;9.47;;
23222;SDS011;11780;13.904;100.620;2023-06-22T10:44:59;18.73;;;9.80;;
23222;SDS011;11780;13.904;100.620;2023-06-22T10:47:30;18.23;;;9.35;;
23222;SDS011;11780;13.904;100.620;2023-06-22T10:50:01;20.10;;;10.40;;
23222;SDS011;11780;13.904;100.620;2023-06-22T10:52:31;21.20;;;9.80;;
23222;SDS011;11780;13.904;100.620;2023-06-22T10:55:02;18.70;;;10.23;;
23222;SDS011;11780;13.904;100.620;2023-06-22T10:57:33;18.42;;;10.88;;
23222;SDS011;11780;13.904;100.620;2023-06-22T11:00:04;23.13;;;10.68;;
23222;SDS011;11780;13.904;100.620;2023-06-22T11:02:35;22.42;;;10.50;;
23222;SDS011;11780;13.904;100.620;2023-06-22T11:05:06;17.73;;;9.82;;
23222;SDS011;11780;13.904;100.620;2023-06-22T11:07:37;25.58;;;11.05;;
23222;SDS011;11780;13.904;100.620;2023-06-22T11:10:13;17.85;;;9.73;;
23222;SDS011;11780;13.904;100.620;2023-06-22T11:12:43;18.90;;;11.27;;
23222;SDS011;11780;13.904;100.620;2023-06-22T11:15:14;20.33;;;11.23;;
23222;SDS011;11780;13.904;100.620;2023-06-22T11:17:44;21.50;;;11.07;;
23222;SDS011;11780;13.904;100.620;2023-06-22T11:20:14;16.90;;;10.47;;
23222;SDS011;11780;13.904;100.620;2023-06-22T11:22:46;18.40;;;11.07;;
23222;SDS011;11780;13.904;100.620;2023-06-22T11:25:17;15.37;;;10.67;;
23222;SDS011;11780;13.904;100.620;2023-06-22T11:27:47;15.05;;;10.32;;
23222;SDS011;11780;13.904;100.620;2023-06-22T11:30:18;20.80;;;10.30;;
23222;SDS011;11780;13.904;100.620;2023-06-22T11:32:49;15.13;;;10.65;;
23222;SDS011;11780;13.904;100.620;2023-06-22T11:35:19;17.47;;;10.30;;
23222;SDS011;11780;13.904;100.620;2023-06-22T11:37:50;14.73;;;10.70;;
23222;SDS011;11780;13.904;100.620;2023-06-22T11:40:20;16.70;;;9.93;;
23222;SDS011;11780;13.904;100.620;2023-06-22T11:42:52;14.93;;;9.20;;
23222;SDS011;11780;13.904;100.620;2023-06-22T11:45:22;19.20;;;10.10;;
23222;SDS011;11780;13.904;100.620;2023-06-22T11:47:53;16.43;;;10.43;;
23222;SDS011;11780;13.904;100.620;2023-06-22T11:50:24;20.85;;;11.80;;
23222;SDS011;11780;13.904;100.620;2023-06-22T11:52:55;27.95;;;11.38;;
23222;SDS011;11780;13.904;100.620;2023-06-22T11:55:25;23.85;;;11.35;;
23222;SDS011;11780;13.904;100.620;2023-06-22T11:57:56;22.87;;;11.73;;
23222;SDS011;11780;13.904;100.620;2023-06-22T12:00:32;21.10;;;11.10;;
23222;SDS011;11780;13.904;100.620;2023-06-22T12:03:16;22.60;;;11.70;;
23222;SDS011;11780;13.904;100.620;2023-06-22T12:05:47;19.88;;;10.52;;
23222;SDS011;11780;13.904;100.620;2023-06-22T12:08:18;16.02;;;9.95;;
23222;SDS011;11780;13.904;100.620;2023-06-22T12:10:49;21.53;;;10.57;;
23222;SDS011;11780;13.904;100.620;2023-06-22T12:15:49;15.15;;;8.95;;
23222;SDS011;11780;13.904;100.620;2023-06-22T12:18:21;15.60;;;9.23;;
23222;SDS011;11780;13.904;100.620;2023-06-22T12:20:52;11.90;;;8.83;;
23222;SDS011;11780;13.904;100.620;2023-06-22T12:23:22;14.55;;;8.95;;
23222;SDS011;11780;13.904;100.620;2023-06-22T12:25:52;16.55;;;9.88;;
23222;SDS011;11780;13.904;100.620;2023-06-22T12:28:23;12.90;;;9.13;;
23222;SDS011;11780;13.904;100.620;2023-06-22T12:30:54;15.30;;;9.43;;
23222;SDS011;11780;13.904;100.620;2023-06-22T12:33:24;19.17;;;10.30;;
23222;SDS011;11780;13.904;100.620;2023-06-22T12:35:54;11.98;;;8.88;;
23222;SDS011;11780;13.904;100.620;2023-06-22T12:40:55;13.38;;;9.48;;
23222;SDS011;11780;13.904;100.620;2023-06-22T12:43:26;18.23;;;9.48;;
23222;SDS011;11780;13.904;100.620;2023-06-22T12:45:56;13.70;;;8.60;;
23222;SDS011;11780;13.904;100.620;2023-06-22T12:48:27;12.43;;;8.87;;
23222;SDS011;11780;13.904;100.620;2023-06-22T12:50:57;15.17;;;9.03;;
23222;SDS011;11780;13.904;100.620;2023-06-22T12:53:28;10.57;;;8.82;;
23222;SDS011;11780;13.904;100.620;2023-06-22T12:55:58;15.70;;;9.00;;
23222;SDS011;11780;13.904;100.620;2023-06-22T12:58:29;15.87;;;8.77;;
23222;SDS011;11780;13.904;100.620;2023-06-22T13:00:59;15.55;;;9.38;;
23222;SDS011;11780;13.904;100.620;2023-06-22T13:03:29;12.40;;;9.23;;
23222;SDS011;11780;13.904;100.620;2023-06-22T13:05:59;14.98;;;9.10;;
23222;SDS011;11780;13.904;100.620;2023-06-22T13:08:30;19.13;;;9.43;;
23222;SDS011;11780;13.904;100.620;2023-06-22T13:11:10;13.65;;;8.77;;
23222;SDS011;11780;13.904;100.620;2023-06-22T13:13:40;14.87;;;8.23;;
23222;SDS011;11780;13.904;100.620;2023-06-22T13:16:11;16.65;;;8.23;;
23222;SDS011;11780;13.904;100.620;2023-06-22T13:18:41;12.32;;;7.75;;
23222;SDS011;11780;13.904;100.620;2023-06-22T13:21:12;11.73;;;8.07;;
23222;SDS011;11780;13.904;100.620;2023-06-22T13:23:43;14.23;;;7.68;;
23222;SDS011;11780;13.904;100.620;2023-06-22T13:26:13;13.15;;;8.27;;
23222;SDS011;11780;13.904;100.620;2023-06-22T13:28:44;16.40;;;8.13;;
23222;SDS011;11780;13.904;100.620;2023-06-22T13:31:14;13.23;;;7.63;;
23222;SDS011;11780;13.904;100.620;2023-06-22T13:33:45;13.97;;;7.37;;
23222;SDS011;11780;13.904;100.620;2023-06-22T13:36:18;14.18;;;6.97;;
23222;SDS011;11780;13.904;100.620;2023-06-22T13:41:12;11.60;;;7.50;;
23222;SDS011;11780;13.904;100.620;2023-06-22T13:43:43;12.40;;;7.10;;
23222;SDS011;11780;13.904;100.620;2023-06-22T13:46:13;13.63;;;7.87;;
23222;SDS011;11780;13.904;100.620;2023-06-22T13:48:44;17.73;;;8.00;;
23222;SDS011;11780;13.904;100.620;2023-06-22T13:51:14;11.93;;;8.27;;
23222;SDS011;11780;13.904;100.620;2023-06-22T13:53:45;13.27;;;8.30;;
23222;SDS011;11780;13.904;100.620;2023-06-22T13:56:15;11.52;;;7.35;;
23222;SDS011;11780;13.904;100.620;2023-06-22T13:58:46;16.93;;;7.20;;
23222;SDS011;11780;13.904;100.620;2023-06-22T14:01:16;12.63;;;7.20;;
23222;SDS011;11780;13.904;100.620;2023-06-22T14:03:47;16.93;;;7.40;;
23222;SDS011;11780;13.904;100.620;2023-06-22T14:08:48;17.73;;;7.10;;
23222;SDS011;11780;13.904;100.620;2023-06-22T14:11:20;14.13;;;7.40;;
23222;SDS011;11780;13.904;100.620;2023-06-22T14:13:50;14.47;;;6.60;;
23222;SDS011;11780;13.904;100.620;2023-06-22T22:48:31;18.05;;;7.68;;
23222;SDS011;11780;13.904;100.620;2023-06-22T22:51:03;14.57;;;7.03;;
23222;SDS011;11780;13.904;100.620;2023-06-22T22:53:34;16.00;;;7.32;;
23222;SDS011;11780;13.904;100.620;2023-06-22T22:56:09;16.67;;;6.43;;
23222;SDS011;11780;13.904;100.620;2023-06-22T22:58:41;14.98;;;6.15;;
23222;SDS011;11780;13.904;100.620;2023-06-22T23:01:11;13.07;;;6.38;;
23222;SDS011;11780;13.904;100.620;2023-06-22T23:03:41;14.90;;;6.40;;
23222;SDS011;11780;13.904;100.620;2023-06-22T23:06:13;13.73;;;6.47;;
23222;SDS011;11780;13.904;100.620;2023-06-22T23:08:43;10.37;;;6.60;;
23222;SDS011;11780;13.904;100.620;2023-06-22T23:11:13;13.17;;;6.53;;
23222;SDS011;11780;13.904;100.620;2023-06-22T23:13:44;13.95;;;6.22;;
23222;SDS011;11780;13.904;100.620;2023-06-22T23:16:15;9.45;;;5.97;;
23222;SDS011;11780;13.904;100.620;2023-06-22T23:18:45;15.30;;;6.85;;
23222;SDS011;11780;13.904;100.620;2023-06-22T23:21:16;12.00;;;5.93;;
23222;SDS011;11780;13.904;100.620;2023-06-22T23:23:47;13.27;;;6.13;;
23222;SDS011;11780;13.904;100.620;2023-06-22T23:26:17;13.40;;;6.35;;
23222;SDS011;11780;13.904;100.620;2023-06-22T23:28:49;14.23;;;6.22;;
23222;SDS011;11780;13.904;100.620;2023-06-22T23:31:19;10.70;;;5.97;;
23222;SDS011;11780;13.904;100.620;2023-06-22T23:33:49;10.60;;;6.05;;
23222;SDS011;11780;13.904;100.620;2023-06-22T23:36:19;13.18;;;6.38;;
23222;SDS011;11780;13.904;100.620;2023-06-22T23:38:50;12.13;;;6.47;;
23222;SDS011;11780;13.904;100.620;2023-06-22T23:41:20;10.83;;;5.73;;
23222;SDS011;11780;13.904;100.620;2023-06-22T23:43:54;12.10;;;5.68;;